createdAt,value
2023-04-13T00:04:31.388Z,4.67
2023-04-13T00:09:33.469Z,4.68
2023-04-13T00:14:35.170Z,4.67
2023-04-13T00:19:37.004Z,4.65
2023-04-13T00:24:38.733Z,4.62
2023-04-13T00:29:40.675Z,4.59
2023-04-13T00:34:45.617Z,4.55
2023-04-13T00:39:47.411Z,4.47
2023-04-13T00:44:49.692Z,4.34
2023-04-13T00:49:53.090Z,4.22
2023-04-13T00:54:56.488Z,4.16
2023-04-13T00:59:58.535Z,4.06
2023-04-13T01:05:00.578Z,3.98
2023-04-13T01:10:08.872Z,3.91
2023-04-13T01:15:14.974Z,3.85
2023-04-13T01:20:17.916Z,3.84
2023-04-13T01:25:38.324Z,3.89
2023-04-13T01:30:40.523Z,3.99
2023-04-13T01:35:43.463Z,4.08
2023-04-13T01:40:50.707Z,4.14
2023-04-13T01:46:04.885Z,4.19
2023-04-13T01:51:13.874Z,4.25
2023-04-13T01:56:23.180Z,4.29
2023-04-13T02:01:30.409Z,4.37
2023-04-13T02:06:33.832Z,4.53
2023-04-13T02:11:40.002Z,4.70
2023-04-13T02:16:42.899Z,4.85
2023-04-13T02:21:44.844Z,4.98
2023-04-13T02:26:46.812Z,5.04
2023-04-13T02:31:49.033Z,5.08
2023-04-13T02:36:50.843Z,5.14
2023-04-13T02:41:53.707Z,5.19
2023-04-13T02:46:56.813Z,5.23
2023-04-13T02:51:59.277Z,5.20
2023-04-13T02:57:13.616Z,5.18
2023-04-13T03:02:17.336Z,5.15
2023-04-13T03:07:19.673Z,5.06
2023-04-13T03:12:24.184Z,4.95
2023-04-13T03:17:26.116Z,4.82
2023-04-13T03:22:30.575Z,4.73
2023-04-13T03:27:34.507Z,4.64
2023-04-13T03:32:37.310Z,4.57
2023-04-13T03:37:43.577Z,4.50
2023-04-13T03:43:01.668Z,4.46
2023-04-13T03:48:06.378Z,4.42
2023-04-13T03:53:08.261Z,4.38
2023-04-13T03:58:11.970Z,4.31
2023-04-13T04:07:12.344Z,4.19
2023-04-13T04:12:14.701Z,4.08
2023-04-13T04:17:17.483Z,4.05
2023-04-13T04:22:19.782Z,4.06
2023-04-13T04:27:21.821Z,4.13
2023-04-13T04:32:25.103Z,4.31
2023-04-13T04:37:28.045Z,4.57
2023-04-13T04:42:42.904Z,4.93
2023-04-13T04:47:53.153Z,5.42
2023-04-13T04:52:57.943Z,5.91
2023-04-13T04:57:59.990Z,6.44
2023-04-13T05:03:02.841Z,7.07
2023-04-13T05:08:05.356Z,7.67
2023-04-13T05:13:11.873Z,8.17
2023-04-13T05:18:15.558Z,8.53
2023-04-13T05:23:17.615Z,8.75
2023-04-13T05:28:26.357Z,8.97
2023-04-13T05:33:29.428Z,9.19
2023-04-13T05:38:33.086Z,9.44
2023-04-13T05:43:35.133Z,9.63
2023-04-13T05:48:37.026Z,9.71
2023-04-13T05:53:41.809Z,9.73
2023-04-13T05:58:44.393Z,9.74
2023-04-13T06:04:05.955Z,9.77
2023-04-13T06:09:09.010Z,9.76
2023-04-13T06:14:10.650Z,9.80
2023-04-13T06:19:15.342Z,9.94
2023-04-13T06:24:17.629Z,10.23
2023-04-13T06:29:20.316Z,10.58
2023-04-13T06:34:31.366Z,11.04
2023-04-13T06:39:37.640Z,11.59
2023-04-13T06:44:48.007Z,12.16
2023-04-13T06:49:50.190Z,12.66
2023-04-13T06:54:52.084Z,13.05
2023-04-13T07:00:15.438Z,13.36
2023-04-13T07:05:28.219Z,13.75
2023-04-13T07:10:39.195Z,14.30
2023-04-13T07:15:42.730Z,14.71
2023-04-13T07:20:45.573Z,15.05
2023-04-13T07:25:48.518Z,15.20
2023-04-13T07:30:54.865Z,15.35
2023-04-13T07:35:57.293Z,15.50
2023-04-13T07:41:00.923Z,15.55
2023-04-13T07:46:12.674Z,15.62
2023-04-13T07:51:19.569Z,15.55
2023-04-13T07:56:22.610Z,15.55
2023-04-13T08:01:26.372Z,15.50
2023-04-13T08:06:29.265Z,15.50
2023-04-13T08:11:31.206Z,15.46
2023-04-13T08:16:38.165Z,15.42
2023-04-13T08:21:42.757Z,15.83
2023-04-13T08:26:45.646Z,16.02
2023-04-13T08:31:48.153Z,16.33
2023-04-13T08:36:50.899Z,16.90
2023-04-13T08:41:53.140Z,17.19
2023-04-13T08:46:56.189Z,16.79
2023-04-13T08:52:05.636Z,16.85
2023-04-13T08:57:11.094Z,17.07
2023-04-13T09:02:14.567Z,16.96
2023-04-13T09:07:29.070Z,16.87
2023-04-13T09:12:35.199Z,17.41
2023-04-13T09:17:37.439Z,17.80
2023-04-13T09:22:39.634Z,18.67
2023-04-13T09:27:41.736Z,19.22
2023-04-13T09:32:43.489Z,18.82
2023-04-13T09:37:45.175Z,18.09
2023-04-13T09:43:06.815Z,18.03
2023-04-13T09:48:38.808Z,18.50
2023-04-13T09:53:47.234Z,19.09
2023-04-13T09:58:50.481Z,19.45
2023-04-13T10:03:52.745Z,19.98
2023-04-13T10:08:54.407Z,20.13
2023-04-13T10:13:59.008Z,20.45
2023-04-13T10:19:09.947Z,20.53
2023-04-13T10:24:13.219Z,20.78
2023-04-13T10:29:16.572Z,20.91
2023-04-13T10:34:29.071Z,20.88
2023-04-13T10:39:33.515Z,20.89
2023-04-13T10:44:45.291Z,20.95
2023-04-13T10:49:48.503Z,21.27
2023-04-13T10:54:50.819Z,21.57
2023-04-13T10:59:59.162Z,21.35
2023-04-13T11:05:02.438Z,20.04
2023-04-13T11:10:05.931Z,19.53
2023-04-13T11:15:08.498Z,19.41
2023-04-13T11:20:11.288Z,19.88
2023-04-13T11:25:13.177Z,20.42
2023-04-13T11:30:14.893Z,20.86
2023-04-13T11:35:18.333Z,21.15
2023-04-13T11:40:25.679Z,21.07
2023-04-13T11:45:31.045Z,20.12
2023-04-13T11:50:33.427Z,19.73
2023-04-13T11:55:50.120Z,19.32
2023-04-13T12:00:59.907Z,18.81
2023-04-13T12:06:05.861Z,18.61
2023-04-13T12:11:39.087Z,18.30
2023-04-13T12:21:40.068Z,17.72
2023-04-13T12:27:17.239Z,16.87
2023-04-13T12:32:07.526Z,15.98
2023-04-13T12:37:11.234Z,15.59
2023-04-13T12:42:13.336Z,15.33
2023-04-13T12:47:15.049Z,15.03
2023-04-13T12:52:16.882Z,14.59
2023-04-13T12:57:18.667Z,14.20
2023-04-13T13:02:24.085Z,13.88
2023-04-13T13:07:27.185Z,13.64
2023-04-13T13:12:30.242Z,13.34
2023-04-13T13:17:31.951Z,12.89
2023-04-13T13:22:34.578Z,12.63
2023-04-13T13:32:43.632Z,12.16
2023-04-13T13:37:45.357Z,12.01
2023-04-13T13:42:51.838Z,11.97
2023-04-13T13:47:58.320Z,11.94
2023-04-13T13:53:09.138Z,11.93
2023-04-13T13:58:14.933Z,11.95
2023-04-13T14:03:16.814Z,11.87
2023-04-13T14:08:18.733Z,11.88
2023-04-13T14:13:20.460Z,11.81
2023-04-13T14:18:23.901Z,11.65
2023-04-13T14:23:25.714Z,11.48
2023-04-13T14:28:27.538Z,11.34
2023-04-13T14:33:29.352Z,11.26
2023-04-13T14:38:31.009Z,11.12
2023-04-13T14:43:32.707Z,10.78
2023-04-13T14:48:34.571Z,10.51
2023-04-13T14:53:36.354Z,10.27
2023-04-13T14:58:37.973Z,10.15
2023-04-13T15:03:39.700Z,9.97
2023-04-13T15:08:41.900Z,9.81
2023-04-13T15:13:43.580Z,9.69
2023-04-13T15:18:45.272Z,9.65
2023-04-13T15:23:47.403Z,9.58
2023-04-13T15:28:49.304Z,9.58
2023-04-13T15:33:51.864Z,9.61
2023-04-13T15:38:53.735Z,9.57
2023-04-13T15:43:56.528Z,9.46
2023-04-13T15:48:59.678Z,9.38
2023-04-13T15:54:01.679Z,9.30
2023-04-13T15:59:04.131Z,9.12
2023-04-13T16:04:09.006Z,8.97
2023-04-13T16:09:10.867Z,8.83
2023-04-13T16:14:12.612Z,8.70
2023-04-13T16:19:18.617Z,8.64
2023-04-13T16:24:21.082Z,8.55
2023-04-13T16:29:22.795Z,8.50
2023-04-13T16:34:26.563Z,8.51
2023-04-13T16:39:28.622Z,8.50
2023-04-13T16:44:30.480Z,8.32
2023-04-13T16:49:33.530Z,8.14
2023-04-13T16:54:35.174Z,8.06
2023-04-13T16:59:36.870Z,8.04
2023-04-13T17:04:38.637Z,8.05
2023-04-13T17:09:40.420Z,8.06
2023-04-13T17:14:43.281Z,8.00
2023-04-13T17:19:45.052Z,7.95
2023-04-13T17:24:46.968Z,7.89
2023-04-13T17:29:49.925Z,7.91
2023-04-13T17:34:51.919Z,7.91
2023-04-13T17:39:53.608Z,7.90
2023-04-13T17:44:57.425Z,7.91
2023-04-13T17:50:00.145Z,7.92
2023-04-13T17:55:02.039Z,8.02
2023-04-13T18:00:04.460Z,8.01
2023-04-13T18:05:08.568Z,7.91
2023-04-13T18:10:10.954Z,7.85
2023-04-13T18:15:14.007Z,7.80
2023-04-13T18:20:15.719Z,7.73
2023-04-13T18:25:17.504Z,7.72
2023-04-13T18:30:21.024Z,7.74
2023-04-13T18:35:22.702Z,7.75
2023-04-13T18:40:24.492Z,7.74
2023-04-13T18:45:26.176Z,7.73
2023-04-13T18:50:29.436Z,7.81
2023-04-13T18:55:31.356Z,7.84
2023-04-13T19:00:33.134Z,7.88
2023-04-13T19:05:35.589Z,7.94
2023-04-13T19:10:38.995Z,7.99
2023-04-13T19:15:40.773Z,8.00
2023-04-13T19:20:42.447Z,8.00
2023-04-13T19:25:45.427Z,8.00
2023-04-13T19:30:47.101Z,8.07
2023-04-13T19:35:48.838Z,8.19
2023-04-13T19:40:50.706Z,8.32
2023-04-13T19:45:54.852Z,8.39
2023-04-13T19:50:56.588Z,8.41
2023-04-13T19:55:58.277Z,8.43
2023-04-13T20:01:00.330Z,8.42
2023-04-13T20:06:03.001Z,8.50
2023-04-13T20:11:05.294Z,8.55
2023-04-13T20:16:07.831Z,8.58
2023-04-13T20:21:10.724Z,8.64
2023-04-13T20:26:12.456Z,8.72
2023-04-13T20:31:15.486Z,8.80
2023-04-13T20:36:18.222Z,8.85
2023-04-13T20:41:21.694Z,8.88
2023-04-13T20:46:25.298Z,8.89
2023-04-13T20:51:29.771Z,8.92
2023-04-13T20:56:31.819Z,8.96
2023-04-13T21:01:33.526Z,8.96
2023-04-13T21:06:35.223Z,8.99
2023-04-13T21:11:37.731Z,8.96
2023-04-13T21:16:39.515Z,8.97
2023-04-13T21:21:41.412Z,8.91
2023-04-13T21:26:43.189Z,8.83
2023-04-13T21:31:47.681Z,8.74
2023-04-13T21:36:51.641Z,8.66
2023-04-13T21:41:54.543Z,8.55
2023-04-13T21:46:57.598Z,8.48
2023-04-13T21:52:00.897Z,8.50
2023-04-13T21:57:02.628Z,8.53
2023-04-13T22:02:04.433Z,8.49
2023-04-13T22:07:06.500Z,8.32
2023-04-13T22:12:10.763Z,8.29
2023-04-13T22:17:14.567Z,8.33
2023-04-13T22:22:16.414Z,8.34
2023-04-13T22:27:18.163Z,8.37
2023-04-13T22:32:20.056Z,8.43
2023-04-13T22:37:21.876Z,8.50
2023-04-13T22:42:23.515Z,8.54
2023-04-13T22:47:25.397Z,8.55
2023-04-13T22:52:27.588Z,8.56
2023-04-13T22:57:29.343Z,8.63
2023-04-13T23:02:31.576Z,8.67
2023-04-13T23:07:34.148Z,8.71
2023-04-13T23:12:36.986Z,8.72
2023-04-13T23:17:41.343Z,8.70
2023-04-13T23:22:43.121Z,8.70
2023-04-13T23:27:44.887Z,8.70
2023-04-13T23:32:46.562Z,8.72
2023-04-13T23:37:48.300Z,8.75
2023-04-13T23:42:50.839Z,8.79
2023-04-13T23:47:54.557Z,8.82
2023-04-13T23:52:57.725Z,8.83
2023-04-13T23:57:59.425Z,8.81
